SWR72L EDDM-LSZH
Flight info
| Callsign | SWR72L |
|---|---|
| Flight time | 0h 36m |
| Altitude | 22000 |
| Route | MERSI4E MERSI Y100 MOMUK Y112 RAVED L856 NEGRA NEGRA2A |
| Aircraft | A320/M-SDE3FGHIRWY/LB1 |
Departure
| Time | 2026-04-30 19:01 |
|---|---|
| Airport | Munich Airport (EDDM) |
Arrival
| Time | 2026-04-30 19:38 |
|---|---|
| Airport | Zürich Airport (LSZH) |
| Time | Latitude | Longitude | Altitude | Speed | Heading |
|---|---|---|---|---|---|
| 2026-04-30 18:12 | 48.35665 | 11.79938 | 1486 ft | 0 kts | 263° |
| 2026-04-30 18:45 | 48.35667 | 11.79958 | 1471 ft | 4 kts | 262° |
| 2026-04-30 18:45 | 48.35671 | 11.79998 | 1482 ft | 4 kts | 258° |
| 2026-04-30 18:46 | 48.35677 | 11.80038 | 1486 ft | 4 kts | 249° |
| 2026-04-30 18:46 | 48.35690 | 11.80072 | 1471 ft | 4 kts | 220° |
| 2026-04-30 18:46 | 48.35699 | 11.80082 | 1481 ft | 0 kts | 200° |
| 2026-04-30 18:49 | 48.35698 | 11.80081 | 1486 ft | 0 kts | 200° |
| 2026-04-30 18:50 | 48.35692 | 11.80078 | 1475 ft | 1 kts | 200° |
| 2026-04-30 18:50 | 48.35665 | 11.80068 | 1486 ft | 6 kts | 185° |
| 2026-04-30 18:50 | 48.35612 | 11.80075 | 1477 ft | 9 kts | 174° |
| 2026-04-30 18:50 | 48.35551 | 11.80085 | 1479 ft | 9 kts | 174° |
| 2026-04-30 18:51 | 48.35493 | 11.80095 | 1486 ft | 8 kts | 173° |
| 2026-04-30 18:51 | 48.35425 | 11.80107 | 1477 ft | 11 kts | 173° |
| 2026-04-30 18:51 | 48.35355 | 11.80127 | 1476 ft | 10 kts | 171° |
| 2026-04-30 18:51 | 48.35288 | 11.80138 | 1486 ft | 10 kts | 174° |
| 2026-04-30 18:52 | 48.35222 | 11.80150 | 1486 ft | 10 kts | 173° |
| 2026-04-30 18:52 | 48.35162 | 11.80097 | 1481 ft | 11 kts | 257° |
| 2026-04-30 18:52 | 48.35153 | 11.79981 | 1486 ft | 11 kts | 264° |
| 2026-04-30 18:52 | 48.35144 | 11.79860 | 1486 ft | 14 kts | 264° |
| 2026-04-30 18:53 | 48.35131 | 11.79691 | 1481 ft | 17 kts | 263° |
| 2026-04-30 18:53 | 48.35097 | 11.79528 | 1473 ft | 16 kts | 213° |
| 2026-04-30 18:53 | 48.34988 | 11.79535 | 1480 ft | 14 kts | 173° |
| 2026-04-30 18:53 | 48.34893 | 11.79551 | 1481 ft | 14 kts | 173° |
| 2026-04-30 18:54 | 48.34838 | 11.79560 | 1486 ft | 0 kts | 176° |
| 2026-04-30 18:56 | 48.34779 | 11.79395 | 1478 ft | 26 kts | 264° |
| 2026-04-30 18:56 | 48.34759 | 11.79122 | 1481 ft | 23 kts | 263° |
| 2026-04-30 18:56 | 48.34740 | 11.78899 | 1475 ft | 23 kts | 263° |
| 2026-04-30 18:57 | 48.34698 | 11.78371 | 1479 ft | 26 kts | 264° |
| 2026-04-30 18:57 | 48.34679 | 11.78119 | 1480 ft | 24 kts | 263° |
| 2026-04-30 18:57 | 48.34663 | 11.77880 | 1477 ft | 25 kts | 263° |
| 2026-04-30 18:58 | 48.34621 | 11.77339 | 1475 ft | 27 kts | 264° |
| 2026-04-30 18:58 | 48.34601 | 11.77076 | 1486 ft | 25 kts | 263° |
| 2026-04-30 18:58 | 48.34582 | 11.76834 | 1479 ft | 21 kts | 263° |
| 2026-04-30 18:59 | 48.34479 | 11.76702 | 1475 ft | 10 kts | 173° |
| 2026-04-30 19:00 | 48.34347 | 11.76946 | 1475 ft | 13 kts | 112° |
| 2026-04-30 19:00 | 48.34306 | 11.77094 | 1486 ft | 17 kts | 112° |
| 2026-04-30 19:00 | 48.34250 | 11.77482 | 1480 ft | 21 kts | 83° |
| 2026-04-30 19:01 | 48.34385 | 11.79218 | 1546 ft | 156 kts | 84° |
| 2026-04-30 19:01 | 48.34498 | 11.80819 | 2493 ft | 153 kts | 84° |
| 2026-04-30 19:02 | 48.34756 | 11.84384 | 3751 ft | 195 kts | 83° |
| 2026-04-30 19:02 | 48.35101 | 11.88870 | 5535 ft | 225 kts | 83° |
| 2026-04-30 19:03 | 48.35491 | 11.93633 | 7894 ft | 235 kts | 83° |
| 2026-04-30 19:03 | 48.34163 | 11.98067 | 9830 ft | 262 kts | 138° |
| 2026-04-30 19:04 | 48.30665 | 12.00638 | 10819 ft | 318 kts | 169° |
| 2026-04-30 19:04 | 48.25899 | 12.01142 | 11432 ft | 355 kts | 174° |
| 2026-04-30 19:05 | 48.20863 | 12.01574 | 13268 ft | 370 kts | 174° |
| 2026-04-30 19:05 | 48.15676 | 12.01982 | 14994 ft | 382 kts | 174° |
| 2026-04-30 19:06 | 48.10247 | 12.02366 | 16611 ft | 394 kts | 174° |
| 2026-04-30 19:06 | 48.07484 | 12.02505 | 17380 ft | 401 kts | 178° |
| 2026-04-30 19:06 | 48.02144 | 11.99821 | 18829 ft | 420 kts | 217° |
| 2026-04-30 19:07 | 47.98900 | 11.92758 | 19809 ft | 423 kts | 258° |
| 2026-04-30 19:07 | 47.98346 | 11.88393 | 20208 ft | 423 kts | 264° |
| 2026-04-30 19:08 | 47.97432 | 11.79768 | 20359 ft | 423 kts | 265° |
| 2026-04-30 19:08 | 47.96535 | 11.71081 | 20349 ft | 423 kts | 265° |
| 2026-04-30 19:08 | 47.96083 | 11.66742 | 20349 ft | 423 kts | 265° |
| 2026-04-30 19:09 | 47.95156 | 11.58049 | 20592 ft | 429 kts | 264° |
| 2026-04-30 19:09 | 47.94684 | 11.53657 | 21403 ft | 430 kts | 265° |
| 2026-04-30 19:09 | 47.94206 | 11.49224 | 22043 ft | 435 kts | 265° |
| 2026-04-30 19:10 | 47.93234 | 11.40268 | 22347 ft | 444 kts | 265° |
| 2026-04-30 19:10 | 47.92229 | 11.31128 | 22347 ft | 448 kts | 264° |
| 2026-04-30 19:11 | 47.91721 | 11.26549 | 22347 ft | 448 kts | 264° |
| 2026-04-30 19:11 | 47.90701 | 11.17407 | 22350 ft | 447 kts | 264° |
| 2026-04-30 19:11 | 47.90192 | 11.12843 | 22336 ft | 446 kts | 264° |
| 2026-04-30 19:12 | 47.89682 | 11.08283 | 22337 ft | 446 kts | 264° |
| 2026-04-30 19:12 | 47.89171 | 11.03734 | 22340 ft | 445 kts | 264° |
| 2026-04-30 19:12 | 47.88659 | 10.99184 | 22331 ft | 445 kts | 264° |
| 2026-04-30 19:13 | 47.87630 | 10.90096 | 22325 ft | 445 kts | 264° |
| 2026-04-30 19:13 | 47.86593 | 10.81022 | 22327 ft | 444 kts | 264° |
| 2026-04-30 19:13 | 47.86074 | 10.76491 | 22325 ft | 444 kts | 264° |
| 2026-04-30 19:14 | 47.85551 | 10.71958 | 22324 ft | 444 kts | 264° |
| 2026-04-30 19:14 | 47.85026 | 10.67423 | 22324 ft | 444 kts | 264° |
| 2026-04-30 19:14 | 47.84499 | 10.62900 | 22326 ft | 444 kts | 264° |
| 2026-04-30 19:14 | 47.83970 | 10.58375 | 22330 ft | 444 kts | 264° |
| 2026-04-30 19:15 | 47.83438 | 10.53855 | 22331 ft | 443 kts | 263° |
| 2026-04-30 19:15 | 47.82380 | 10.44815 | 22327 ft | 443 kts | 264° |
| 2026-04-30 19:15 | 47.81852 | 10.40305 | 22325 ft | 443 kts | 263° |
| 2026-04-30 19:16 | 47.81320 | 10.35783 | 22325 ft | 444 kts | 263° |
| 2026-04-30 19:16 | 47.80781 | 10.31265 | 22324 ft | 443 kts | 263° |
| 2026-04-30 19:16 | 47.79697 | 10.22246 | 22321 ft | 443 kts | 263° |
| 2026-04-30 19:17 | 47.79153 | 10.17730 | 22320 ft | 443 kts | 263° |
| 2026-04-30 19:17 | 47.78066 | 10.08795 | 22004 ft | 434 kts | 263° |
| 2026-04-30 19:17 | 47.77525 | 10.04394 | 21754 ft | 431 kts | 263° |
| 2026-04-30 19:18 | 47.76638 | 9.97136 | 21337 ft | 428 kts | 263° |
| 2026-04-30 19:18 | 47.75931 | 9.91327 | 21006 ft | 426 kts | 263° |
| 2026-04-30 19:18 | 47.75405 | 9.86999 | 20756 ft | 424 kts | 263° |
| 2026-04-30 19:19 | 47.74876 | 9.82695 | 20505 ft | 423 kts | 263° |
| 2026-04-30 19:19 | 47.74345 | 9.78409 | 20293 ft | 421 kts | 263° |
| 2026-04-30 19:19 | 47.73277 | 9.69864 | 20144 ft | 420 kts | 263° |
| 2026-04-30 19:20 | 47.72875 | 9.65590 | 19892 ft | 416 kts | 270° |
| 2026-04-30 19:20 | 47.72756 | 9.61316 | 19643 ft | 414 kts | 271° |
| 2026-04-30 19:20 | 47.72524 | 9.52818 | 19143 ft | 410 kts | 271° |
| 2026-04-30 19:21 | 47.72333 | 9.48594 | 18892 ft | 411 kts | 265° |
| 2026-04-30 19:21 | 47.70599 | 9.40531 | 18391 ft | 413 kts | 244° |
| 2026-04-30 19:22 | 47.67237 | 9.33647 | 17893 ft | 412 kts | 231° |
| 2026-04-30 19:22 | 47.61839 | 9.23845 | 17151 ft | 405 kts | 233° |
| 2026-04-30 19:23 | 47.58493 | 9.12657 | 16237 ft | 393 kts | 262° |
| 2026-04-30 19:24 | 47.58028 | 9.04763 | 15492 ft | 384 kts | 276° |
| 2026-04-30 19:24 | 47.58403 | 9.00879 | 15113 ft | 378 kts | 286° |
| 2026-04-30 19:24 | 47.60228 | 8.93682 | 14318 ft | 371 kts | 294° |
| 2026-04-30 19:25 | 47.63063 | 8.83107 | 13028 ft | 365 kts | 294° |
| 2026-04-30 19:26 | 47.64926 | 8.76167 | 12129 ft | 360 kts | 293° |
| 2026-04-30 19:26 | 47.66753 | 8.69368 | 11226 ft | 344 kts | 293° |
| 2026-04-30 19:26 | 47.67603 | 8.66186 | 10776 ft | 321 kts | 293° |
| 2026-04-30 19:27 | 47.69149 | 8.60396 | 10036 ft | 282 kts | 292° |
| 2026-04-30 19:27 | 47.70537 | 8.55200 | 9615 ft | 266 kts | 293° |
| 2026-04-30 19:28 | 47.71219 | 8.52651 | 9418 ft | 265 kts | 292° |
| 2026-04-30 19:28 | 47.72550 | 8.47660 | 9022 ft | 252 kts | 292° |
| 2026-04-30 19:29 | 47.73807 | 8.42929 | 8610 ft | 243 kts | 292° |
| 2026-04-30 19:29 | 47.74417 | 8.40593 | 8409 ft | 242 kts | 290° |
| 2026-04-30 19:30 | 47.73753 | 8.33434 | 8277 ft | 239 kts | 232° |
| 2026-04-30 19:30 | 47.71656 | 8.29985 | 8273 ft | 219 kts | 224° |
| 2026-04-30 19:31 | 47.69329 | 8.27267 | 8107 ft | 213 kts | 190° |
| 2026-04-30 19:31 | 47.67855 | 8.27246 | 7575 ft | 216 kts | 159° |
| 2026-04-30 19:31 | 47.65476 | 8.29877 | 6566 ft | 215 kts | 132° |
| 2026-04-30 19:32 | 47.64387 | 8.31395 | 6004 ft | 216 kts | 132° |
| 2026-04-30 19:32 | 47.63295 | 8.32903 | 5483 ft | 212 kts | 132° |
| 2026-04-30 19:32 | 47.62236 | 8.34361 | 5134 ft | 203 kts | 133° |
| 2026-04-30 19:32 | 47.61229 | 8.35747 | 4870 ft | 192 kts | 133° |
| 2026-04-30 19:33 | 47.60285 | 8.37045 | 4619 ft | 184 kts | 132° |
| 2026-04-30 19:33 | 47.59371 | 8.38301 | 4363 ft | 174 kts | 133° |
| 2026-04-30 19:33 | 47.58530 | 8.39454 | 4153 ft | 155 kts | 133° |
| 2026-04-30 19:33 | 47.57791 | 8.40467 | 3954 ft | 136 kts | 132° |
| 2026-04-30 19:34 | 47.57124 | 8.41380 | 3784 ft | 128 kts | 132° |
| 2026-04-30 19:34 | 47.56478 | 8.42267 | 3602 ft | 124 kts | 133° |
| 2026-04-30 19:34 | 47.55235 | 8.43975 | 3325 ft | 123 kts | 133° |
| 2026-04-30 19:35 | 47.54597 | 8.44860 | 3174 ft | 128 kts | 133° |
| 2026-04-30 19:35 | 47.53936 | 8.45771 | 2984 ft | 135 kts | 133° |
| 2026-04-30 19:35 | 47.53225 | 8.46745 | 2803 ft | 142 kts | 134° |
| 2026-04-30 19:35 | 47.52504 | 8.47722 | 2614 ft | 138 kts | 133° |
| 2026-04-30 19:36 | 47.51815 | 8.48672 | 2408 ft | 131 kts | 133° |
| 2026-04-30 19:36 | 47.51165 | 8.49557 | 2224 ft | 124 kts | 134° |
| 2026-04-30 19:36 | 47.49949 | 8.51227 | 1950 ft | 127 kts | 134° |
| 2026-04-30 19:37 | 47.49422 | 8.51948 | 1775 ft | 126 kts | 134° |
| 2026-04-30 19:37 | 47.48781 | 8.52821 | 1634 ft | 126 kts | 134° |
| 2026-04-30 19:37 | 47.48149 | 8.53705 | 1458 ft | 125 kts | 134° |
| 2026-04-30 19:37 | 47.47534 | 8.54500 | 1400 ft | 105 kts | 134° |
| 2026-04-30 19:38 | 47.47122 | 8.55099 | 1388 ft | 59 kts | 138° |
| 2026-04-30 19:38 | 47.46886 | 8.55415 | 1399 ft | 39 kts | 137° |
| 2026-04-30 19:38 | 47.46717 | 8.55620 | 1395 ft | 29 kts | 158° |
| 2026-04-30 19:38 | 47.46567 | 8.55686 | 1403 ft | 18 kts | 168° |
| 2026-04-30 19:39 | 47.46509 | 8.55705 | 1395 ft | 18 kts | 168° |
| 2026-04-30 19:39 | 47.46398 | 8.55744 | 1398 ft | 13 kts | 159° |
| 2026-04-30 19:39 | 47.46331 | 8.55821 | 1402 ft | 11 kts | 137° |
| 2026-04-30 19:39 | 47.46280 | 8.55892 | 1406 ft | 7 kts | 136° |
| 2026-04-30 19:40 | 47.46260 | 8.55920 | 1403 ft | 3 kts | 136° |
| 2026-04-30 19:40 | 47.46231 | 8.55961 | 1404 ft | 8 kts | 135° |
| 2026-04-30 19:40 | 47.46184 | 8.55999 | 1406 ft | 7 kts | 173° |
| 2026-04-30 19:40 | 47.46122 | 8.55993 | 1411 ft | 11 kts | 184° |
| 2026-04-30 19:41 | 47.46066 | 8.55986 | 1407 ft | 14 kts | 184° |
| 2026-04-30 19:41 | 47.45955 | 8.55963 | 1407 ft | 17 kts | 196° |
| 2026-04-30 19:41 | 47.45863 | 8.55912 | 1409 ft | 13 kts | 201° |
| 2026-04-30 19:41 | 47.45799 | 8.55878 | 1410 ft | 9 kts | 197° |
| 2026-04-30 19:42 | 47.45715 | 8.55866 | 1409 ft | 16 kts | 185° |
| 2026-04-30 19:42 | 47.45600 | 8.55849 | 1409 ft | 17 kts | 186° |
| 2026-04-30 19:42 | 47.45510 | 8.55805 | 1408 ft | 12 kts | 246° |
| 2026-04-30 19:42 | 47.45514 | 8.55682 | 1407 ft | 10 kts | 276° |
| 2026-04-30 19:43 | 47.45487 | 8.55643 | 1411 ft | 4 kts | 175° |
| 2026-04-30 19:43 | 47.45452 | 8.55637 | 1409 ft | 4 kts | 186° |
| 2026-04-30 19:43 | 47.45433 | 8.55635 | 1412 ft | 2 kts | 186° |
| 2026-04-30 19:44 | 47.45430 | 8.55634 | 1407 ft | 0 kts | 186° |